Terminal Aerodrome Forecast
Issued by NWS

Home | Current Version | Previous Version | Text Only | Print | Product List | Glossary On
Versions: 1 2 3 4 5 6 7 8 9 10 11 12 13 14 15 16 17 18 19 20 21 22 23 24 25
469
FTUS46 KEKA 140520
TAFCEC
TAF
KCEC 140520Z 1406/1506 15008KT P6SM VCSH SCT025 OVC040
     FM141400 16009KT 4SM -SHRA BR SCT007 OVC025
     FM142000 19006KT 5SM BR SCT007 OVC015=

USA.gov is the U.S. government's official web portal to all federal, state and local government web resources and services.